x

South Santa Rosa Is. Ca (46069) Wave Buoy

5:50 - Sat 27th Dec 2014 All times are PST. -8 hours from GMT.

  • Sig Wave height 4.3ft
  • Peak Period 11s
  • Average Period 7s
  • Wind
    4mph, 7mph gusts
  • Sea Temp 60°f
  • Air Temp 58°f
  • Sea Pressure 1026.2mb
  • South Santa Rosa Is. Ca
  • South Santa Rosa Is. Ca

More Historic Weather Station data

Upgrade to MSW Pro to gain access to the past 30 days of data for over 8000 Wavebouys and Weather Stations around the globe.

Join Pro

Comparision Forecast

View Surf forecast
   
sam. 12/27 5:50 4.5ft 11s 7s 4 7 mph 1026.2mb 60f 58f
4:50 4ft 10s 7s 4 7 mph 1025.9mb 60f 58f
3:50 4.5ft 11s 6s 7 9 mph 1025.8mb 60f 58f
2:50 4.5ft 12s 6s 9 11 mph 1025.3mb 59f 58f
1:50 5ft 12s 7s 11 13 mph 1025.5mb 59f 58f
12:50 5ft 11s 6s 13 16 mph 1025.3mb 59f 58f
11:50 5.5ft 11s 6s 13 16 mph 1026.1mb 59f 58f
10:50 6.5ft 10s 6s 13 16 mph 1026.9mb 59f 58f
9:50 7ft 9s 6s 16 20 mph 1026.8mb 59f 58f
8:50 7ft 11s 6s 18 22 mph 1025.6mb 58f 58f
7:50 7.5ft 10s 6s 22 27 mph 1024.9mb 58f 57f
6:50 7ft 11s 6s 20 25 mph 1024mb 58f 58f
5:50 7ft 10s 6s 20 25 mph 1023.4mb 58f 58f
4:50 7ft 11s 6s 20 22 mph 1023.1mb 59f 58f
3:50 7ft 11s 6s 16 20 mph 1023.2mb 59f 59f
2:50 7.5ft 13s 6s 18 22 mph 1022.6mb 59f 59f
1:50 6ft 11s 6s 18 22 mph 1022.3mb 59f 58f
12:50 6.5ft 11s 8s 16 18 mph 1022.5mb 58f 59f
ven. 12/26 11:50 7ft 11s 8s 9 11 mph 1022.4mb 58f 58f
10:50 7ft 11s 8s 7 9 mph 1022.4mb 58f 58f
9:50 7.5ft 11s 8s 4 9 mph 1022.1mb 58f 57f
8:50 7.5ft 10s 8s 7 9 mph 1021.4mb 58f 57f
7:50 7ft 12s 8s 7 9 mph 1020.9mb 58f 57f
6:50 6ft 10s 7s 9 11 mph 1020.6mb 59f 57f
5:50 7ft 13s 8s 9 13 mph 1019.8mb 59f 57f
4:50 7ft 12s 7s 11 13 mph 1019.1mb 59f 57f
3:50 8ft 11s 7s 11 13 mph 1018.8mb 59f 57f
2:50 8ft 14s 7s 9 13 mph 1018.6mb 59f 57f
1:50 9ft 10s 7s 9 11 mph 1018.3mb 59f 57f
12:50 10ft 11s 7s 7 11 mph 1018.4mb 59f 57f
11:50 10ft 11s 7s 13 20 mph 1018.8mb 59f 58f
10:50 10ft 11s 8s 4 9 mph 1019.6mb 59f 56f
9:50 10.5ft 11s 8s 7 9 mph 1019.7mb 59f 56f
8:50 10.5ft 11s 8s 11 16 mph 1018.7mb 59f 55f
7:50 11ft 11s 8s 16 20 mph 1017.9mb 59f 56f
6:50 10.5ft 11s 8s 18 22 mph 1017.5mb 59f 56f
5:50 10.5ft 11s 8s 20 22 mph 1016.2mb 59f 56f
4:50 11.5ft 12s 8s 20 25 mph 1015.6mb 59f 56f
3:50 11.5ft 11s 8s 18 22 mph 1015.3mb 58f 56f
2:50 12ft 12s 8s 20 25 mph 1015.2mb 58f 56f
1:50 12ft 11s 8s 22 25 mph 1014.9mb 59f 56f
12:50 12ft 12s 8s 22 27 mph 1014.6mb 59f 56f
jeu. 12/25 11:50 13ft 13s 8s 25 29 mph 1014.4mb 59f 56f
10:50 14.5ft 11s 8s 27 34 mph 1014.7mb 59f 57f
9:50 15ft 12s 8s 31 38 mph 1014.3mb 59f 57f
8:50 14ft 11s 8s 27 34 mph 1014.6mb 59f 57f
7:50 14ft 12s 8s 27 29 mph 1014.1mb 59f 58f
6:50 13ft 12s 8s 22 29 mph 1014mb 59f 58f
5:50 13ft 12s 8s 27 31 mph 1013.2mb 59f 58f
4:50 14ft 12s 8s 27 31 mph 1012.7mb 59f 58f
3:50 14.5ft 14s 8s 29 34 mph 1011.9mb 59f 58f
2:50 14ft 11s 8s 29 36 mph 1011.7mb 60f 57f
1:50 14ft 11s 8s 25 31 mph 1012.1mb 60f 57f
12:50 16ft 12s 9s 29 36 mph 1011.9mb 60f 56f
11:50 15ft 12s 8s 27 31 mph 1012.9mb 60f 56f
10:50 15.5ft 15s 8s 31 38 mph 1012.8mb 60f 56f
9:50 16.5ft 11s 9s 31 38 mph 1012.8mb 60f 56f
8:50 15ft 9s 8s 31 38 mph 1013.1mb 60f 56f
7:50 15.5ft 11s 8s 34 43 mph 1012.1mb 61f 56f
6:50 16ft 11s 8s 36 45 mph 1010.9mb 61f 56f
5:50 15ft 10s 8s 36 43 mph 1010.8mb 61f 56f
3:50 14ft 10s 8s 31 38 mph 1011.4mb 61f 57f
2:50 14.5ft 10s 8s 31 38 mph 1011.6mb 61f 58f
1:50 14.5ft 9s 7s 34 43 mph 1011.3mb 61f 59f
12:50 14ft 8s 7s 36 43 mph 1011.1mb 61f 59f
mer. 12/24 11:50 12ft 8s 7s 34 40 mph 1011.6mb 61f 59f
10:50 12ft 16s 7s 31 40 mph 1012.6mb 61f 59f
9:50 11.5ft 16s 7s 29 38 mph 1013.1mb 62f 60f
8:50 10ft 16s 7s 27 31 mph 1013.1mb 62f 61f
7:50 10ft 16s 7s 29 34 mph 1013.2mb 62f 61f
6:50 10ft 16s 7s 27 31 mph 1012.8mb 62f 61f
5:50 10ft 16s 7s 29 34 mph 1012.9mb 62f 61f
4:50 9ft 16s 8s 18 22 mph 1013.1mb 62f 61f
3:50 8ft 15s 7s 25 29 mph 1013.8mb 62f 61f
2:50 8.5ft 13s 8s 22 27 mph 1014.4mb 62f 61f
1:50 9ft 15s 10s 20 25 mph 1014.6mb 62f 61f
12:50 9ft 16s 10s 11 13 mph 1015.1mb 62f 61f
11:50 9.5ft 16s 10s 9 13 mph 1016.4mb 62f 62f
10:50 10.5ft 17s 10s 7 9 mph 1017mb 62f 62f
9:50 10.5ft 16s 10s 2 7 mph 1017.3mb 62f 62f
8:50 10ft 16s 10s 4 7 mph 1017.4mb 62f 62f
7:50 9ft 16s 10s 4 7 mph 1016.9mb 62f 62f
6:50 9ft 17s 10s 2 4 mph 1016.8mb 62f 63f
5:50 9ft 17s 10s 4
mph
1017.1mb 62f 64f
4:50 8.5ft 17s 11s 7
mph
1016.8mb 62f 63f
3:50 7.5ft 17s 10s 7 9 mph 1016.9mb 62f 62f
2:50 8ft 13s 10s 4 7 mph 1017.2mb 62f 62f